Time;durP1;ratioP1;P1;durP2;ratioP2;P2;SDS_P1;SDS_P2;PMS_P1;PMS_P2;Temp;Humidity;BMP_temperature;BMP_pressure;BME280_temperature;BME280_humidity;BME280_pressure;Samples;Min_cycle;Max_cycle;Signal;HPM_P1;HPM_P2
2022/09/13 00:04:20;;;;;;;14.10;9.90;;;;;;;9.05;99.94;98561.10;220138;1276;24420;-77
2022/09/13 00:10:36;;;;;;;16.90;10.00;;;;;;;9.00;99.88;98559.02;220299;1276;25369;-77
2022/09/13 00:15:50;;;;;;;17.90;9.40;;;;;;;8.94;99.87;98554.53;219884;1278;25534;-77
2022/09/13 00:22:05;;;;;;;18.40;10.30;;;;;;;8.92;100.00;98550.02;220039;1279;22581;-77
2022/09/13 00:27:34;;;;;;;18.00;11.40;;;;;;;8.93;100.00;98551.55;219937;1278;25402;-77
2022/09/13 00:33:06;;;;;;;16.90;11.70;;;;;;;8.92;100.00;98548.94;219644;1278;22723;-77
2022/09/13 00:39:00;;;;;;;20.70;12.50;;;;;;;8.87;100.00;98547.12;220206;1276;22568;-78
2022/09/13 00:45:09;;;;;;;16.40;9.80;;;;;;;8.83;100.00;98547.38;220258;1276;26106;-77
2022/09/13 00:51:14;;;;;;;17.60;11.30;;;;;;;8.81;100.00;98541.30;219541;1278;22549;-76
2022/09/13 00:57:52;;;;;;;18.30;11.40;;;;;;;8.85;100.00;98533.14;220132;1276;23063;-77
2022/09/13 01:03:16;;;;;;;17.70;10.40;;;;;;;8.86;100.00;98536.86;220217;1276;23053;-77
2022/09/13 01:09:35;;;;;;;18.90;11.80;;;;;;;8.84;100.00;98529.68;220052;1276;22546;-77
2022/09/13 01:14:47;;;;;;;19.70;11.70;;;;;;;8.84;100.00;98524.39;219709;1279;22551;-77
2022/09/13 01:20:14;;;;;;;18.80;12.40;;;;;;;8.82;100.00;98515.38;220105;1276;22606;-77
2022/09/13 01:25:54;;;;;;;18.40;12.20;;;;;;;8.76;100.00;98513.63;219931;1276;22594;-76
2022/09/13 01:32:42;;;;;;;;;;;;;;;;;;;;;
2022/09/13 01:45:27;;;;;;;;;;;;;;;;;;;;;
2022/09/13 01:51:51;;;;;;;21.40;13.20;;;;;;;8.58;100.00;98510.11;215416;1277;22580;-76
2022/09/13 01:57:45;;;;;;;19.10;12.60;;;;;;;8.55;100.00;98504.63;220064;1279;22590;-79
2022/09/13 02:03:49;;;;;;;;;;;;;;;;;;;;;
2022/09/13 02:09:00;;;;;;;19.30;11.60;;;;;;;8.46;100.00;98488.70;220078;1278;24522;-77
2022/09/13 02:14:55;;;;;;;19.10;11.30;;;;;;;8.42;100.00;98483.37;220124;1279;22560;-77
2022/09/13 02:20:22;;;;;;;17.90;12.70;;;;;;;8.44;100.00;98476.84;220070;1278;23128;-77
2022/09/13 02:26:33;;;;;;;23.10;13.80;;;;;;;8.45;100.00;98474.61;219907;1277;24314;-78
2022/09/13 02:39:28;;;;;;;21.60;13.50;;;;;;;8.34;100.00;98475.65;220050;1276;22663;-77
2022/09/13 02:44:54;;;;;;;21.10;13.30;;;;;;;8.31;100.00;98470.54;220087;1278;24428;-77
2022/09/13 02:52:04;;;;;;;22.30;13.60;;;;;;;8.30;100.00;98462.23;219890;1278;22588;-77
2022/09/13 02:57:56;;;;;;;23.20;14.40;;;;;;;8.28;100.00;98455.95;219699;1279;22515;-77
2022/09/13 03:04:03;;;;;;;21.20;13.80;;;;;;;8.30;100.00;98455.88;220032;1278;23277;-77
2022/09/13 03:09:12;;;;;;;25.70;16.20;;;;;;;8.33;100.00;98453.55;220011;1278;22598;-77
2022/09/13 03:23:09;;;;;;;20.50;13.80;;;;;;;8.29;100.00;98454.18;219933;1278;22550;-77
2022/09/13 03:29:51;;;;;;;18.40;11.70;;;;;;;8.27;100.00;98447.95;218626;1284;24582;-78
2022/09/13 03:36:00;;;;;;;17.90;12.40;;;;;;;8.22;100.00;98437.09;218114;1284;26391;-77
2022/09/13 03:41:50;;;;;;;;;;;;;;;;;;;;;
2022/09/13 03:47:03;;;;;;;33.60;13.10;;;;;;;8.15;100.00;98430.77;220070;1276;24270;-77
2022/09/13 03:52:29;;;;;;;29.80;13.40;;;;;;;8.11;100.00;98421.99;219826;1277;24306;-77
2022/09/13 03:58:46;;;;;;;28.40;13.30;;;;;;;8.08;100.00;98419.36;220032;1276;22999;-77
2022/09/13 04:05:22;;;;;;;26.00;13.60;;;;;;;8.07;100.00;98420.38;219206;1281;22561;-77
2022/09/13 04:10:37;;;;;;;21.30;13.30;;;;;;;8.03;100.00;98418.96;219397;1281;22664;-77
2022/09/13 04:16:06;;;;;;;24.90;13.80;;;;;;;8.00;100.00;98421.19;218877;1284;23926;-77
2022/09/13 04:28:05;;;;;;;31.90;15.20;;;;;;;7.99;100.00;98414.70;219797;1276;24208;-77
2022/09/13 04:33:37;;;;;;;24.90;15.40;;;;;;;8.01;100.00;98416.96;219891;1276;24442;-78
2022/09/13 04:39:19;;;;;;;;;;;;;;;;;;;;;
2022/09/13 04:50:15;;;;;;;25.80;14.90;;;;;;;8.14;100.00;98416.42;219959;1278;25491;-77
2022/09/13 04:56:16;;;;;;;;;;;;;;;;;;;;;
2022/09/13 05:03:00;;;;;;;29.80;15.50;;;;;;;8.36;100.00;98413.49;219960;1276;24446;-77
2022/09/13 05:09:03;;;;;;;26.70;14.90;;;;;;;8.51;100.00;98410.33;220788;1276;24271;-78
2022/09/13 05:14:36;;;;;;;;;;;;;;;;;;;;;
2022/09/13 05:20:25;;;;;;;;;;;;;;;;;;;;;
2022/09/13 05:26:55;;;;;;;17.80;12.70;;;;;;;8.98;100.00;98408.02;219873;1279;22561;-78
2022/09/13 05:33:23;;;;;;;19.80;12.20;;;;;;;9.16;100.00;98405.12;219952;1276;22601;-78
2022/09/13 05:39:46;;;;;;;13.60;10.60;;;;;;;9.36;100.00;98408.64;219558;1277;22561;-77
2022/09/13 05:46:22;;;;;;;19.10;12.60;;;;;;;9.57;100.00;98415.67;220128;1278;24344;-76
2022/09/13 05:52:29;;;;;;;20.90;12.20;;;;;;;9.75;100.00;98415.78;220388;1276;22581;-76
2022/09/13 05:58:39;;;;;;;;;;;;;;;;;;;;;
2022/09/13 06:03:56;;;;;;;20.80;13.70;;;;;;;10.16;100.00;98417.11;220402;1277;27358;-77
2022/09/13 06:09:18;;;;;;;16.00;11.50;;;;;;;10.30;100.00;98423.98;221017;1277;22571;-77
2022/09/13 06:14:31;;;;;;;16.40;12.50;;;;;;;10.48;100.00;98422.03;220871;1277;24803;-77
2022/09/13 06:19:43;;;;;;;;;;;;;;;;;;;;;
2022/09/13 06:25:11;;;;;;;;;;;;;;;;;;;;;
2022/09/13 06:30:18;;;;;;;16.60;12.40;;;;;;;11.06;100.00;98415.05;220158;1278;24419;-77
2022/09/13 06:35:20;;;;;;;19.80;12.90;;;;;;;11.30;100.00;98406.91;220488;1277;22563;-76
2022/09/13 06:40:26;;;;;;;22.20;14.20;;;;;;;11.54;100.00;98399.88;220259;1277;22695;-76
2022/09/13 06:46:34;;;;;;;20.20;13.80;;;;;;;11.79;100.00;98395.73;220311;1276;26494;-75
2022/09/13 06:52:14;;;;;;;20.80;13.00;;;;;;;12.03;100.00;98395.89;220353;1278;27802;-76
2022/09/13 06:58:04;;;;;;;;;;;;;;;;;;;;;
2022/09/13 07:03:36;;;;;;;17.60;10.70;;;;;;;12.65;100.00;98399.49;220433;1277;22665;-76
2022/09/13 07:09:31;;;;;;;12.70;8.40;;;;;;;12.92;100.00;98401.59;220277;1277;22663;-75
2022/09/13 07:21:00;;;;;;;10.50;8.20;;;;;;;13.46;100.00;98399.23;220279;1279;22575;-76
2022/09/13 07:26:43;;;;;;;14.40;9.30;;;;;;;13.67;100.00;98401.64;220568;1277;25380;-76
2022/09/13 07:32:33;;;;;;;15.00;9.20;;;;;;;13.78;100.00;98406.79;220472;1277;24812;-75
2022/09/13 07:38:25;;;;;;;14.80;7.80;;;;;;;13.94;100.00;98397.17;220785;1278;23403;-76
2022/09/13 07:44:16;;;;;;;17.80;8.20;;;;;;;14.22;100.00;98394.79;220810;1277;22577;-75
2022/09/13 07:50:02;;;;;;;11.30;6.90;;;;;;;14.55;100.00;98392.69;220308;1277;23136;-75
2022/09/13 07:55:23;;;;;;;9.30;6.00;;;;;;;14.83;99.44;98387.14;220652;1278;22549;-75
2022/09/13 08:00:28;;;;;;;6.20;4.90;;;;;;;15.12;98.90;98383.39;220480;1277;22553;-75
2022/09/13 08:05:31;;;;;;;6.40;5.10;;;;;;;15.45;98.57;98387.09;219607;1277;1001886;-76
2022/09/13 08:10:36;;;;;;;9.20;5.10;;;;;;;15.77;97.34;98384.85;220243;1278;22588;-75
2022/09/13 08:15:41;;;;;;;6.50;4.20;;;;;;;16.04;95.73;98385.84;220276;1278;24381;-75
2022/09/13 08:21:00;;;;;;;5.20;4.30;;;;;;;16.22;93.83;98378.95;220667;1277;24270;-75
2022/09/13 08:26:24;;;;;;;5.80;3.70;;;;;;;16.37;92.10;98372.77;220848;1277;25367;-74
2022/09/13 08:31:40;;;;;;;7.40;3.60;;;;;;;16.53;89.00;98372.19;220323;1277;24134;-76
2022/09/13 08:36:51;;;;;;;4.70;3.20;;;;;;;16.62;87.59;98367.81;220791;1277;22594;-75
2022/09/13 08:48:56;;;;;;;7.30;3.60;;;;;;;16.90;86.71;98372.90;221033;1277;23029;-76
2022/09/13 08:54:10;;;;;;;6.10;3.40;;;;;;;17.08;85.53;98373.49;220654;1277;22624;-75
2022/09/13 08:59:39;;;;;;;5.80;3.70;;;;;;;17.28;84.51;98363.33;220419;1277;22599;-76
2022/09/13 09:05:11;;;;;;;11.90;3.80;;;;;;;17.39;83.85;98350.64;220614;1276;22654;-78
2022/09/13 09:10:32;;;;;;;12.30;3.80;;;;;;;17.39;82.99;98355.43;220475;1277;22720;-78
2022/09/13 09:16:06;;;;;;;8.10;3.90;;;;;;;17.57;82.27;98362.67;221316;1277;24044;-78
2022/09/13 09:21:27;;;;;;;7.10;3.40;;;;;;;17.77;80.78;98357.55;220694;1277;24326;-78
2022/09/13 09:26:53;;;;;;;7.60;3.70;;;;;;;17.91;80.83;98357.38;220579;1277;24304;-78
2022/09/13 09:32:47;;;;;;;4.90;3.10;;;;;;;18.08;79.87;98356.44;219744;1281;22573;-78
2022/09/13 09:38:45;;;;;;;3.00;2.70;;;;;;;18.20;79.49;98356.52;219815;1281;22696;-78
2022/09/13 09:44:14;;;;;;;3.70;2.50;;;;;;;18.30;79.59;98345.98;218944;1282;22681;-77
2022/09/13 09:50:13;;;;;;;2.90;2.70;;;;;;;18.49;78.83;98342.04;219935;1281;22556;-77
2022/09/13 09:56:14;;;;;;;4.60;2.90;;;;;;;18.69;78.18;98333.65;219108;1281;22790;-77
2022/09/13 10:02:00;;;;;;;;;;;;;;;;;;;;;
2022/09/13 10:08:24;;;;;;;4.50;3.20;;;;;;;19.05;77.08;98321.20;220180;1277;25304;-78
2022/09/13 10:14:58;;;;;;;;;;;;;;;;;;;;;
2022/09/13 10:20:16;;;;;;;3.60;2.80;;;;;;;19.40;76.25;98310.81;221856;1277;22492;-79
2022/09/13 10:25:41;;;;;;;;;;;;;;;;;;;;;
2022/09/13 10:31:14;;;;;;;5.10;3.00;;;;;;;19.68;75.75;98299.39;221767;1277;22561;-79
2022/09/13 10:37:25;;;;;;;7.10;3.30;;;;;;;19.83;75.39;98300.84;220623;1277;22574;-78
2022/09/13 10:43:05;;;;;;;7.80;3.40;;;;;;;20.01;74.77;98302.77;220532;1276;25437;-79
2022/09/13 10:49:01;;;;;;;6.90;3.20;;;;;;;20.15;72.60;98291.03;220383;1277;22550;-77
2022/09/13 10:54:58;;;;;;;;;;;;;;;;;;;;;
2022/09/13 11:00:16;;;;;;;6.00;3.00;;;;;;;20.33;72.48;98276.24;220446;1277;24411;-78
2022/09/13 11:06:23;;;;;;;4.90;3.30;;;;;;;20.39;71.10;98279.99;220781;1276;25601;-77
2022/09/13 11:11:44;;;;;;;4.80;3.50;;;;;;;20.55;71.29;98272.75;220599;1276;23840;-76
2022/09/13 11:17:36;;;;;;;4.60;3.40;;;;;;;20.75;71.40;98262.94;220510;1276;24616;-77
2022/09/13 11:23:18;;;;;;;6.90;3.30;;;;;;;20.92;70.44;98248.47;220251;1276;25270;-78
2022/09/13 11:29:12;;;;;;;5.70;2.80;;;;;;;21.18;68.86;98232.66;220254;1276;24630;-78
2022/09/13 11:35:13;;;;;;;8.40;4.70;;;;;;;21.42;65.67;98227.07;220138;1277;23875;-78
2022/09/13 11:40:46;;;;;;;3.60;3.30;;;;;;;21.55;66.54;98218.11;220298;1276;22840;-78
2022/09/13 11:46:17;;;;;;;4.10;3.10;;;;;;;21.67;64.95;98214.02;220387;1277;25328;-78
2022/09/13 11:51:42;;;;;;;5.60;3.00;;;;;;;21.72;66.08;98211.02;220405;1276;22582;-78
2022/09/13 11:57:03;;;;;;;5.80;3.20;;;;;;;21.84;65.81;98196.80;220615;1276;25369;-77
2022/09/13 12:02:45;;;;;;;4.80;3.00;;;;;;;21.75;65.69;98179.27;220256;1277;25313;-78
2022/09/13 12:08:35;;;;;;;6.70;3.50;;;;;;;21.56;66.34;98172.89;220201;1276;24235;-79
2022/09/13 12:14:12;;;;;;;7.20;2.90;;;;;;;21.19;64.56;98178.90;220549;1276;22551;-78
2022/09/13 12:19:24;;;;;;;6.10;3.10;;;;;;;20.81;65.59;98167.61;220282;1277;22567;-78
2022/09/13 12:24:54;;;;;;;2.50;2.30;;;;;;;20.68;65.90;98162.71;220591;1276;24274;-78
2022/09/13 12:30:06;;;;;;;3.00;2.60;;;;;;;20.64;66.57;98164.19;220671;1276;22718;-78
2022/09/13 12:36:14;;;;;;;2.90;2.50;;;;;;;20.62;66.94;98156.71;220462;1276;25231;-78
2022/09/13 12:42:34;;;;;;;3.60;2.80;;;;;;;20.60;68.14;98159.95;220360;1277;22582;-79
2022/09/13 12:47:52;;;;;;;3.20;2.70;;;;;;;20.57;67.92;98149.42;219920;1276;1002382;-79
2022/09/13 12:53:38;;;;;;;7.00;2.90;;;;;;;20.55;67.89;98146.90;220434;1276;22664;-77
2022/09/13 12:59:14;;;;;;;4.60;3.00;;;;;;;20.54;67.94;98141.52;221384;1277;22577;-78
2022/09/13 13:04:52;;;;;;;4.20;2.70;;;;;;;20.57;67.96;98133.48;220452;1277;24292;-77
2022/09/13 13:09:57;;;;;;;5.20;2.20;;;;;;;20.65;67.81;98135.14;220477;1277;22583;-78
2022/09/13 13:15:42;;;;;;;4.60;2.60;;;;;;;20.84;67.86;98124.72;220825;1277;22700;-79
2022/09/13 13:21:26;;;;;;;5.50;2.80;;;;;;;20.96;67.22;98114.65;220605;1276;22565;-79
2022/09/13 13:27:20;;;;;;;3.30;2.90;;;;;;;20.98;66.48;98112.33;220475;1277;23011;-80
2022/09/13 13:32:30;;;;;;;15.80;3.30;;;;;;;21.01;66.42;98105.29;220448;1276;23851;-80
2022/09/13 13:38:53;;;;;;;;;;;;;;;;;;;;;
2022/09/13 13:44:35;;;;;;;5.60;2.40;;;;;;;20.91;65.80;98100.83;221980;1276;22585;-80
2022/09/13 13:49:42;;;;;;;11.10;2.70;;;;;;;20.86;66.06;98096.97;218301;1276;4305717;-78
2022/09/13 13:55:40;;;;;;;2.40;2.20;;;;;;;20.85;65.79;98091.21;220575;1276;22801;-78
2022/09/13 14:01:01;;;;;;;5.00;2.30;;;;;;;20.89;65.04;98091.16;220536;1277;24225;-78
2022/09/13 14:06:31;;;;;;;4.20;2.70;;;;;;;21.03;65.41;98079.02;220541;1276;23809;-77
2022/09/13 14:12:06;;;;;;;2.40;2.20;;;;;;;21.14;64.67;98071.26;220404;1277;24302;-77
2022/09/13 14:18:06;;;;;;;4.30;2.30;;;;;;;21.22;64.90;98066.65;220421;1276;23142;-77
2022/09/13 14:23:56;;;;;;;2.40;2.20;;;;;;;21.33;64.32;98067.36;219269;1282;24240;-78
2022/09/13 14:29:18;;;;;;;2.60;2.40;;;;;;;21.33;63.44;98072.26;220293;1276;25348;-78
2022/09/13 14:34:56;;;;;;;2.40;2.00;;;;;;;21.26;63.83;98068.33;220298;1276;22569;-78
2022/09/13 14:40:16;;;;;;;2.60;2.00;;;;;;;21.05;64.29;98061.52;220451;1276;24247;-78
2022/09/13 14:45:43;;;;;;;2.90;2.20;;;;;;;20.86;64.77;98054.20;220535;1276;22636;-78
2022/09/13 14:51:03;;;;;;;3.40;2.40;;;;;;;20.63;65.16;98056.13;220490;1276;25539;-78
2022/09/13 14:57:02;;;;;;;2.90;2.40;;;;;;;20.52;65.60;98055.47;219990;1277;23123;-78
2022/09/13 15:02:30;;;;;;;3.10;2.10;;;;;;;20.46;66.40;98044.59;220028;1276;22611;-77
2022/09/13 15:08:41;;;;;;;4.60;2.50;;;;;;;20.43;67.14;98036.47;220127;1276;23015;-77
2022/09/13 15:14:49;;;;;;;;;;;;;;;;;;;;;
2022/09/13 15:20:23;;;;;;;3.20;2.60;;;;;;;20.37;67.71;98027.02;219886;1276;22718;-78
2022/09/13 15:25:59;;;;;;;4.20;2.30;;;;;;;20.29;68.08;98023.58;220028;1276;24316;-79
2022/09/13 15:31:45;;;;;;;4.00;2.30;;;;;;;20.22;67.69;98024.89;220189;1276;22598;-78
2022/09/13 15:37:12;;;;;;;2.40;2.20;;;;;;;20.10;67.09;98014.42;220216;1276;25429;-78
2022/09/13 15:42:17;;;;;;;2.70;1.90;;;;;;;20.06;67.63;98020.98;220173;1276;25263;-78
2022/09/13 15:47:19;;;;;;;2.70;2.40;;;;;;;19.96;67.46;98018.45;220032;1277;24004;-77
2022/09/13 15:52:27;;;;;;;2.20;2.00;;;;;;;19.88;67.81;98022.69;220015;1276;25380;-77
2022/09/13 15:58:00;;;;;;;2.90;2.40;;;;;;;19.80;68.05;98021.27;219446;1281;22566;-78
2022/09/13 16:03:13;;;;;;;2.30;2.10;;;;;;;19.70;68.54;98020.88;219298;1281;22542;-79
2022/09/13 16:08:15;;;;;;;3.30;2.10;;;;;;;19.61;68.97;98022.23;219316;1281;23217;-76
2022/09/13 16:13:23;;;;;;;3.40;2.90;;;;;;;19.51;69.42;98019.30;220021;1281;25335;-78
2022/09/13 16:18:34;;;;;;;4.00;2.20;;;;;;;19.41;69.79;98008.91;219456;1281;22551;-78
2022/09/13 16:23:42;;;;;;;4.00;2.90;;;;;;;19.30;70.23;98014.33;220130;1276;22727;-77
2022/09/13 16:28:47;;;;;;;6.10;2.30;;;;;;;19.21;70.35;98009.98;219795;1275;24205;-78
2022/09/13 16:33:49;;;;;;;4.10;2.30;;;;;;;19.10;70.70;98014.80;220068;1276;22624;-77
2022/09/13 16:38:56;;;;;;;3.20;2.50;;;;;;;18.97;71.16;98015.98;220187;1276;22647;-77
2022/09/13 16:44:03;;;;;;;2.70;2.30;;;;;;;18.81;71.46;98017.56;220001;1276;25268;-77
2022/09/13 16:49:37;;;;;;;4.70;3.00;;;;;;;18.64;72.17;98017.80;220280;1276;26135;-78
2022/09/13 16:55:17;;;;;;;6.40;3.20;;;;;;;18.46;72.63;98013.98;220259;1276;25610;-79
2022/09/13 17:00:35;;;;;;;4.50;3.70;;;;;;;18.31;73.23;98012.47;219927;1277;26470;-78
2022/09/13 17:06:09;;;;;;;7.70;5.00;;;;;;;18.16;73.97;98005.20;219861;1276;24441;-77
2022/09/13 17:11:20;;;;;;;6.70;4.90;;;;;;;18.03;74.41;97998.68;219959;1277;23703;-78
2022/09/13 17:16:26;;;;;;;7.10;4.80;;;;;;;17.89;74.77;97994.13;220104;1276;25371;-78
2022/09/13 17:21:51;;;;;;;6.20;4.30;;;;;;;17.73;75.32;97990.31;219928;1277;22601;-77
2022/09/13 17:27:00;;;;;;;4.20;3.50;;;;;;;17.57;75.61;97989.81;220019;1276;25221;-76
2022/09/13 17:38:01;;;;;;;4.60;3.40;;;;;;;17.33;76.13;97995.63;220095;1276;24301;-78
2022/09/13 17:43:13;;;;;;;6.00;4.00;;;;;;;17.28;76.45;97993.66;220152;1276;22649;-78
2022/09/13 17:48:20;;;;;;;5.70;3.50;;;;;;;17.26;76.62;97994.40;220032;1278;25380;-77
2022/09/13 17:53:59;;;;;;;6.00;3.80;;;;;;;17.25;76.74;97990.73;220121;1276;24152;-77
2022/09/13 17:59:15;;;;;;;6.40;5.30;;;;;;;17.25;76.92;97982.14;220124;1276;24267;-76
2022/09/13 18:04:20;;;;;;;5.50;4.20;;;;;;;17.19;77.00;97973.65;220075;1276;23492;-77
2022/09/13 18:09:23;;;;;;;8.00;3.70;;;;;;;17.14;77.12;97976.02;219751;1278;24349;-76
2022/09/13 18:14:28;;;;;;;4.30;3.10;;;;;;;17.09;77.13;97978.23;219792;1277;24315;-76
2022/09/13 18:19:31;;;;;;;6.90;4.30;;;;;;;17.05;77.32;97969.78;220030;1276;25329;-77
2022/09/13 18:24:51;;;;;;;9.80;4.80;;;;;;;17.01;77.49;97974.62;219883;1277;23967;-77
2022/09/13 18:29:53;;;;;;;5.40;4.10;;;;;;;16.98;77.67;97971.70;220109;1276;25444;-76
2022/09/13 18:35:14;;;;;;;6.30;4.50;;;;;;;16.97;77.81;97977.25;220148;1276;22664;-78
2022/09/13 18:40:39;;;;;;;6.60;4.40;;;;;;;16.97;77.92;97979.63;220031;1278;24411;-77
2022/09/13 18:45:42;;;;;;;5.90;4.00;;;;;;;16.97;78.00;97982.56;219963;1276;22613;-78
2022/09/13 18:50:48;;;;;;;5.30;3.70;;;;;;;16.97;78.12;97978.16;219914;1276;23069;-77
2022/09/13 18:55:54;;;;;;;8.10;4.20;;;;;;;16.97;78.16;97986.06;220073;1276;25263;-77
2022/09/13 19:01:04;;;;;;;6.80;4.70;;;;;;;16.98;78.33;97982.76;220337;1276;22605;-77
2022/09/13 19:06:14;;;;;;;6.50;4.00;;;;;;;17.01;78.47;97974.72;220285;1277;25270;-78
2022/09/13 19:11:23;;;;;;;7.40;4.90;;;;;;;17.02;78.52;97966.45;219978;1276;22726;-76
2022/09/13 19:16:47;;;;;;;5.90;4.00;;;;;;;16.99;78.46;97969.02;220080;1276;25375;-77
2022/09/13 19:21:50;;;;;;;8.10;4.90;;;;;;;16.94;78.59;97971.15;220210;1279;22564;-77
2022/09/13 19:26:52;;;;;;;6.00;4.40;;;;;;;16.88;78.69;97973.14;220196;1276;22705;-77
2022/09/13 19:32:01;;;;;;;7.10;4.40;;;;;;;16.82;78.93;97973.39;219810;1277;22539;-76
2022/09/13 19:37:04;;;;;;;5.80;4.00;;;;;;;16.77;79.05;97971.09;219786;1276;24442;-79
2022/09/13 19:42:10;;;;;;;4.40;3.50;;;;;;;16.72;79.24;97964.12;220075;1276;25412;-75
2022/09/13 19:47:34;;;;;;;4.60;3.30;;;;;;;16.67;79.46;97958.88;219761;1279;25334;-77
2022/09/13 19:52:57;;;;;;;7.60;5.20;;;;;;;16.59;79.67;97951.97;219070;1281;22667;-77
2022/09/13 19:58:12;;;;;;;5.70;3.80;;;;;;;16.52;79.86;97948.09;219377;1281;23974;-77
2022/09/13 20:03:24;;;;;;;6.20;3.80;;;;;;;16.47;80.05;97941.78;219353;1281;22738;-78
2022/09/13 20:08:27;;;;;;;6.40;3.80;;;;;;;16.44;80.23;97940.99;219599;1281;23415;-77
2022/09/13 20:13:29;;;;;;;5.80;4.20;;;;;;;16.44;80.41;97941.16;219876;1277;24140;-76
2022/09/13 20:18:34;;;;;;;5.70;3.40;;;;;;;16.45;80.55;97939.94;220085;1276;23210;-76
2022/09/13 20:23:46;;;;;;;3.80;3.30;;;;;;;16.44;80.60;97942.23;219934;1276;22585;-77
2022/09/13 20:29:11;;;;;;;4.00;3.50;;;;;;;16.40;80.54;97942.44;220027;1276;22563;-78
2022/09/13 20:34:36;;;;;;;5.00;4.00;;;;;;;16.35;80.73;97942.40;219990;1276;22581;-77
2022/09/13 20:39:47;;;;;;;9.00;4.20;;;;;;;16.31;80.88;97940.67;219974;1276;23148;-77
2022/09/13 20:45:00;;;;;;;5.40;3.80;;;;;;;16.26;81.01;97943.94;219676;1276;24786;-78
2022/09/13 20:50:14;;;;;;;5.10;2.90;;;;;;;16.23;81.16;97939.48;220023;1276;23954;-76
2022/09/13 20:55:40;;;;;;;4.40;3.60;;;;;;;16.22;81.31;97944.36;220077;1276;25378;-77
2022/09/13 21:01:47;;;;;;;4.20;3.30;;;;;;;16.23;81.37;97944.08;219853;1276;23983;-78
2022/09/13 21:13:25;;;;;;;4.60;3.20;;;;;;;16.27;81.58;97941.33;220158;1276;24385;-77
2022/09/13 21:18:48;;;;;;;4.10;3.60;;;;;;;16.28;81.67;97939.90;220141;1276;24115;-77
2022/09/13 21:24:31;;;;;;;6.30;3.50;;;;;;;16.28;81.71;97931.41;220069;1276;24250;-76
2022/09/13 21:30:06;;;;;;;6.70;3.30;;;;;;;16.26;81.73;97923.63;220308;1276;26330;-77
2022/09/13 21:35:21;;;;;;;3.90;3.10;;;;;;;16.21;81.72;97924.51;219846;1279;22563;-78
2022/09/13 21:40:35;;;;;;;4.50;3.60;;;;;;;16.16;81.84;97928.23;219895;1279;25431;-77
2022/09/13 21:46:37;;;;;;;;;;;;;;;;;;;;;
2022/09/13 21:52:00;;;;;;;3.70;2.70;;;;;;;16.08;82.17;97922.23;220251;1276;24332;-76
2022/09/13 21:57:52;;;;;;;4.70;3.70;;;;;;;16.06;82.28;97917.49;220089;1276;22594;-77
2022/09/13 22:03:38;;;;;;;3.70;2.70;;;;;;;16.09;82.35;97923.74;219815;1279;22577;-78
2022/09/13 22:10:06;;;;;;;3.30;2.60;;;;;;;16.14;82.43;97927.26;219499;1281;22555;-76
2022/09/13 22:21:26;;;;;;;;;;;;;;;;;;;;;
2022/09/13 22:27:27;;;;;;;3.60;2.80;;;;;;;16.30;82.14;97908.30;219788;1279;22818;-77
2022/09/13 22:32:43;;;;;;;4.60;3.40;;;;;;;16.32;81.87;97907.71;219822;1277;22607;-77
2022/09/13 22:39:00;;;;;;;5.00;2.90;;;;;;;16.32;81.70;97902.23;219800;1278;22601;-77
2022/09/13 22:44:08;;;;;;;3.80;2.80;;;;;;;16.29;81.65;97899.39;219950;1279;22638;-77
2022/09/13 22:49:59;;;;;;;;;;;;;;;;;;;;;
2022/09/13 22:56:49;;;;;;;3.40;2.90;;;;;;;16.23;81.60;97900.39;220270;1278;22555;-76
2022/09/13 23:02:38;;;;;;;3.40;3.00;;;;;;;16.22;81.50;97895.50;220056;1278;22553;-77
2022/09/13 23:14:40;;;;;;;2.80;2.60;;;;;;;16.24;81.24;97886.39;219780;1279;24482;-76
2022/09/13 23:20:50;;;;;;;;;;;;;;;;;;;;;
2022/09/13 23:27:26;;;;;;;4.00;2.90;;;;;;;16.20;81.13;97885.44;219906;1277;25269;-78
2022/09/13 23:33:50;;;;;;;3.70;2.70;;;;;;;16.18;81.13;97882.77;219568;1279;22707;-77
2022/09/13 23:39:51;;;;;;;4.00;3.30;;;;;;;16.22;81.00;97889.88;219928;1277;24299;-78
2022/09/13 23:52:42;;;;;;;;;;;;;;;;;;;;;
2022/09/13 23:57:55;;;;;;;4.20;2.50;;;;;;;16.32;80.77;97879.16;219797;1277;23061;-77
